Time;durP1;ratioP1;P1;durP2;ratioP2;P2;SDS_P1;SDS_P2;PMS_P1;PMS_P2;Temp;Humidity;BMP_temperature;BMP_pressure;BME280_temperature;BME280_humidity;BME280_pressure;Samples;Min_cycle;Max_cycle;Signal;HPM_P1;HPM_P2
2020/12/27 04:39:18;;;;;;;0.40;0.40;;;;;;;-5.47;77.58;99500.25;6271055;22;20424;-86
2020/12/27 05:09:39;;;;;;;0.50;0.50;;;;;;;-5.54;78.95;99469.53;6167913;23;20428;-86
2020/12/27 05:22:40;;;;;;;0.50;0.50;;;;;;;-5.56;79.18;99474.06;6068049;23;20553;-86
2020/12/27 05:39:33;;;;;;;0.40;0.40;;;;;;;-5.57;79.09;99420.19;6036901;23;20523;-86
2020/12/27 05:43:49;;;;;;;0.60;0.60;;;;;;;-5.45;78.81;99421.78;6037710;23;20411;-86
2020/12/27 06:08:59;;;;;;;0.50;0.50;;;;;;;-5.56;78.69;99362.66;6068983;23;20430;-86
2020/12/27 06:13:14;;;;;;;0.50;0.50;;;;;;;-5.55;78.94;99353.03;6095364;23;20458;-87
2020/12/27 06:17:39;;;;;;;0.40;0.40;;;;;;;-5.56;78.84;99341.75;6009987;23;20394;-86
2020/12/27 06:34:34;;;;;;;0.50;0.50;;;;;;;-5.04;78.40;99360.97;6067695;23;20472;-87
2020/12/27 06:39:17;;;;;;;0.40;0.40;;;;;;;-4.99;78.06;99332.66;6097582;23;20478;-88
2020/12/27 06:43:58;;;;;;;0.50;0.50;;;;;;;-4.80;77.30;99317.09;6092102;23;20431;-86
2020/12/27 06:52:39;;;;;;;0.50;0.50;;;;;;;-4.50;75.92;99337.19;6095209;23;20438;-86
2020/12/27 07:09:20;;;;;;;0.40;0.40;;;;;;;-4.07;74.56;99339.53;4590798;27;16275893;-89
2020/12/27 07:12:16;;;;;;;0.50;0.50;;;;;;;-4.06;74.43;99331.53;5134041;28;20219;-89
2020/12/27 07:15:21;;;;;;;0.47;0.47;;;;;;;-3.93;73.98;99333.09;5147702;28;20411;-88
2020/12/27 07:18:12;;;;;;;0.50;0.50;;;;;;;-3.84;74.41;99321.81;5135533;28;20504;-88
2020/12/27 07:21:06;;;;;;;0.50;0.50;;;;;;;-3.75;73.75;99324.44;5135116;28;20423;-88
2020/12/27 07:24:14;;;;;;;0.50;0.50;;;;;;;-3.59;73.10;99323.88;5135190;28;20427;-89
2020/12/27 07:27:18;;;;;;;0.50;0.50;;;;;;;-3.52;72.70;99306.66;5149803;27;20536;-89
2020/12/27 07:30:23;;;;;;;0.50;0.50;;;;;;;-3.43;72.88;99305.81;5149944;27;20435;-89
2020/12/27 07:33:09;;;;;;;0.50;0.50;;;;;;;-3.40;72.85;99304.72;5133496;28;20439;-89
2020/12/27 07:35:51;;;;;;;0.50;0.50;;;;;;;-3.32;71.70;99287.34;5126354;28;20496;-90
2020/12/27 07:39:13;;;;;;;0.50;0.50;;;;;;;-3.20;71.78;99293.25;5150102;28;20439;-89
2020/12/27 07:42:02;;;;;;;0.40;0.40;;;;;;;-3.12;71.45;99298.59;5144576;27;20442;-89
2020/12/27 07:45:20;;;;;;;0.40;0.40;;;;;;;-2.97;70.76;99306.84;5130519;28;20447;-90
2020/12/27 07:48:15;;;;;;;0.50;0.50;;;;;;;-2.88;69.99;99306.00;5129377;28;20479;-89
2020/12/27 07:51:10;;;;;;;0.50;0.50;;;;;;;-2.70;69.15;99297.25;5115117;28;20420;-88
2020/12/27 07:54:02;;;;;;;0.40;0.40;;;;;;;-2.63;69.32;99308.00;5130013;28;20463;-89
2020/12/27 07:57:13;;;;;;;0.40;0.40;;;;;;;-2.61;69.40;99289.50;5060120;28;20442;-89
2020/12/27 08:05:14;;;;;;;0.40;0.40;;;;;;;-2.32;69.04;99296.25;5073460;28;20437;-89
2020/12/27 08:09:36;;;;;;;0.40;0.40;;;;;;;-2.19;68.71;99303.78;5089351;28;20275;-90
2020/12/27 08:17:28;;;;;;;0.40;0.40;;;;;;;-2.10;68.23;99278.47;5143990;28;20438;-89
2020/12/27 08:21:11;;;;;;;0.40;0.40;;;;;;;-1.88;67.88;99294.63;5132408;28;20204;-88
2020/12/27 08:25:26;;;;;;;0.50;0.50;;;;;;;-1.70;67.66;99301.69;5081202;28;20202;-86
2020/12/27 10:38:27;;;;;;;0.40;0.40;;;;;;;1.69;58.20;98938.25;5358145;23;20278;-85
2020/12/27 10:41:26;;;;;;;0.40;0.40;;;;;;;1.80;59.77;98939.66;4979476;28;20178;-84
2020/12/27 10:47:14;;;;;;;0.40;0.40;;;;;;;1.83;58.01;98938.44;4966441;29;20191;-85
2020/12/27 10:50:06;;;;;;;0.40;0.40;;;;;;;1.83;57.82;98904.94;4962489;29;20179;-87
2020/12/27 10:52:53;;;;;;;0.40;0.40;;;;;;;1.86;57.90;98901.94;4958856;29;20183;-85
2020/12/27 10:56:10;;;;;;;0.30;0.30;;;;;;;1.75;58.62;98886.53;4958028;29;20184;-84
2020/12/27 10:59:03;;;;;;;0.33;0.33;;;;;;;1.94;58.80;98867.50;4979300;28;20199;-85
2020/12/27 11:02:23;;;;;;;0.50;0.50;;;;;;;2.04;58.71;98854.03;4952938;28;20184;-86
2020/12/27 11:05:28;;;;;;;0.40;0.40;;;;;;;2.09;56.89;98841.91;4988612;28;20194;-86
2020/12/27 11:08:40;;;;;;;0.50;0.40;;;;;;;2.33;56.82;98853.16;4977898;28;20222;-85
2020/12/27 11:11:42;;;;;;;0.40;0.40;;;;;;;2.29;57.20;98850.03;4947597;29;20168;-86
2020/12/27 11:18:08;;;;;;;0.30;0.30;;;;;;;2.31;56.76;98849.88;4961935;29;20210;-85
2020/12/27 11:21:33;;;;;;;0.33;0.33;;;;;;;2.33;58.05;98839.94;4996057;28;20209;-85
2020/12/27 11:24:25;;;;;;;0.40;0.40;;;;;;;2.45;58.13;98835.78;4943100;28;20250;-85
2020/12/27 11:30:15;;;;;;;0.40;0.40;;;;;;;2.57;57.05;98827.19;4960310;29;20188;-85
2020/12/27 11:33:07;;;;;;;0.40;0.40;;;;;;;2.54;56.83;98809.06;4962344;28;20226;-85
2020/12/27 11:36:24;;;;;;;0.30;0.30;;;;;;;2.39;57.11;98792.41;4971696;28;20185;-85
2020/12/27 11:48:24;;;;;;;0.40;0.40;;;;;;;2.39;58.49;98762.50;4865973;29;20234;-86
2020/12/27 11:52:14;;;;;;;0.40;0.40;;;;;;;2.21;58.55;98758.47;4863112;29;20189;-86
2020/12/27 12:05:28;;;;;;;0.40;0.40;;;;;;;2.47;58.20;98731.47;4863037;29;20203;-84
2020/12/27 12:08:38;;;;;;;0.40;0.40;;;;;;;2.27;58.98;98703.22;4823165;29;20240;-84
2020/12/27 12:12:21;;;;;;;0.40;0.40;;;;;;;2.29;59.43;98690.66;4839140;29;20180;-84
2020/12/27 12:15:22;;;;;;;0.40;0.40;;;;;;;2.32;59.55;98687.63;4847306;29;20187;-84
2020/12/27 12:18:39;;;;;;;0.30;0.30;;;;;;;2.37;58.68;98674.66;4868831;29;20171;-84
2020/12/27 12:22:16;;;;;;;0.40;0.40;;;;;;;2.46;58.84;98662.94;4832370;29;20266;-84
2020/12/27 12:25:19;;;;;;;0.40;0.40;;;;;;;2.25;58.38;98641.81;4849460;29;20203;-84
2020/12/27 12:28:18;;;;;;;0.40;0.40;;;;;;;2.24;57.41;98632.25;4853555;29;20211;-83
2020/12/27 12:34:42;;;;;;;0.33;0.33;;;;;;;2.28;60.38;98641.44;4859613;29;20190;-85
2020/12/27 12:37:56;;;;;;;0.40;0.40;;;;;;;2.14;58.66;98620.19;4868619;29;20220;-84
2020/12/27 12:41:11;;;;;;;0.40;0.40;;;;;;;2.20;58.79;98600.09;4856618;29;20194;-84
2020/12/27 12:44:26;;;;;;;0.40;0.40;;;;;;;2.13;59.88;98593.94;4857621;29;20200;-85
2020/12/27 12:47:42;;;;;;;0.40;0.40;;;;;;;1.94;60.31;98576.94;4867205;29;20229;-84
2020/12/27 12:51:09;;;;;;;0.40;0.40;;;;;;;1.96;59.59;98588.09;4867972;29;20184;-84
2020/12/27 12:54:48;;;;;;;0.40;0.40;;;;;;;2.07;59.63;98584.13;4867695;29;20191;-83
2020/12/27 12:58:02;;;;;;;0.40;0.40;;;;;;;1.90;59.09;98557.19;4857955;29;20199;-84
2020/12/27 13:02:04;;;;;;;0.40;0.40;;;;;;;1.80;59.64;98555.88;4943523;29;20188;-84
2020/12/27 13:05:08;;;;;;;0.40;0.40;;;;;;;1.85;59.63;98545.53;4962384;29;20180;-84
2020/12/27 13:07:57;;;;;;;0.50;0.50;;;;;;;1.79;59.71;98536.56;4962089;29;20224;-84
2020/12/27 13:10:57;;;;;;;0.40;0.40;;;;;;;1.73;59.70;98526.75;4962386;29;20196;-84
2020/12/27 13:14:11;;;;;;;0.40;0.40;;;;;;;1.85;59.86;98529.69;4953314;29;20188;-82
2020/12/27 13:17:01;;;;;;;0.40;0.40;;;;;;;1.88;59.57;98511.63;4936069;29;20196;-84
2020/12/27 13:20:24;;;;;;;0.33;0.33;;;;;;;2.00;59.12;98511.94;4941175;29;20186;-84
2020/12/27 13:24:01;;;;;;;0.40;0.40;;;;;;;1.78;58.96;98496.13;4957971;29;20212;-84
2020/12/27 13:27:04;;;;;;;0.40;0.40;;;;;;;1.81;58.37;98486.19;4921382;29;20200;-83
2020/12/27 13:30:12;;;;;;;0.40;0.40;;;;;;;1.60;59.50;98489.66;4945576;29;20195;-84
2020/12/27 13:33:11;;;;;;;0.30;0.30;;;;;;;1.80;59.72;98493.31;4961297;29;20203;-84
2020/12/27 13:36:01;;;;;;;0.40;0.40;;;;;;;1.67;59.22;98475.53;4946258;29;20188;-84
2020/12/27 13:38:58;;;;;;;0.40;0.40;;;;;;;1.60;61.15;98485.22;4960935;28;20211;-83
2020/12/27 13:42:28;;;;;;;0.40;0.40;;;;;;;1.80;60.49;98461.59;4959472;28;20214;-83
2020/12/27 13:45:40;;;;;;;0.40;0.40;;;;;;;1.72;60.24;98459.94;4966610;28;20214;-84
2020/12/27 13:48:22;;;;;;;0.40;0.40;;;;;;;1.62;60.57;98446.25;4950185;29;20219;-84
2020/12/27 13:51:34;;;;;;;0.37;0.37;;;;;;;1.75;59.84;98438.41;4949296;28;20552;-84
2020/12/27 13:54:50;;;;;;;0.40;0.40;;;;;;;1.77;59.94;98446.94;4955412;29;20191;-84
2020/12/27 13:58:09;;;;;;;0.40;0.40;;;;;;;1.78;58.97;98442.47;4962485;29;20198;-84
2020/12/27 14:05:45;;;;;;;0.30;0.30;;;;;;;1.62;59.91;98426.94;4968680;28;20187;-84
2020/12/27 14:09:06;;;;;;;0.40;0.40;;;;;;;1.53;59.72;98420.19;4969803;28;20207;-84
2020/12/27 14:12:25;;;;;;;0.40;0.40;;;;;;;1.54;61.26;98438.44;4964029;28;20183;-85
2020/12/27 14:15:34;;;;;;;0.33;0.33;;;;;;;1.51;59.80;98414.25;4979137;28;20179;-85
2020/12/27 14:18:55;;;;;;;0.40;0.40;;;;;;;1.48;61.04;98393.53;4980428;28;20213;-83
2020/12/27 14:22:09;;;;;;;0.40;0.40;;;;;;;1.62;62.03;98395.25;4952201;29;20245;-84
2020/12/27 14:25:30;;;;;;;0.30;0.30;;;;;;;1.51;60.25;98387.84;4980264;28;20167;-85
2020/12/27 14:28:20;;;;;;;0.40;0.40;;;;;;;1.29;61.65;98373.91;4963114;28;20290;-85
2020/12/27 14:31:46;;;;;;;0.40;0.40;;;;;;;1.37;60.11;98372.94;4968751;28;20227;-86
2020/12/27 14:34:58;;;;;;;0.40;0.40;;;;;;;1.15;60.67;98359.78;4980245;28;20223;-84
2020/12/27 14:38:15;;;;;;;0.30;0.30;;;;;;;1.22;61.13;98354.53;4976359;29;20255;-84
2020/12/27 14:41:11;;;;;;;0.40;0.40;;;;;;;1.10;61.12;98329.69;4933856;29;20211;-86
2020/12/27 14:44:21;;;;;;;0.40;0.40;;;;;;;1.06;63.46;98339.81;4960633;29;20239;-85
2020/12/27 14:47:11;;;;;;;0.30;0.30;;;;;;;0.99;63.51;98338.94;4946100;29;20198;-84
2020/12/27 14:50:03;;;;;;;0.40;0.40;;;;;;;0.95;65.39;98321.88;4929422;29;20723;-84
2020/12/27 14:53:13;;;;;;;0.30;0.30;;;;;;;0.80;64.34;98319.28;4965106;28;20186;-84
2020/12/27 14:56:54;;;;;;;0.33;0.33;;;;;;;0.73;64.96;98328.97;4955739;28;20179;-86
2020/12/27 15:00:23;;;;;;;0.30;0.30;;;;;;;0.65;65.36;98308.03;4979439;28;20199;-84
2020/12/27 15:03:21;;;;;;;0.40;0.40;;;;;;;0.63;65.58;98309.19;4964907;28;20223;-84
2020/12/27 15:06:47;;;;;;;0.50;0.50;;;;;;;0.60;65.11;98305.13;4930795;28;20255;-85
2020/12/27 15:09:57;;;;;;;0.40;0.40;;;;;;;0.64;65.91;98303.75;4979149;28;20363;-84
2020/12/27 15:17:19;;;;;;;0.40;0.40;;;;;;;0.45;67.18;98285.94;4979626;28;20268;-85
2020/12/27 15:20:30;;;;;;;0.40;0.40;;;;;;;0.50;66.54;98288.81;4959623;28;20179;-84
2020/12/27 15:23:39;;;;;;;0.40;0.40;;;;;;;0.36;66.55;98279.16;4965829;28;20191;-85
2020/12/27 15:26:24;;;;;;;0.40;0.40;;;;;;;0.41;66.83;98282.03;4977912;28;20198;-84
2020/12/27 15:29:21;;;;;;;0.30;0.30;;;;;;;0.36;67.02;98284.41;4966934;28;20223;-85
2020/12/27 15:33:27;;;;;;;0.40;0.40;;;;;;;0.35;66.55;98277.50;4973028;28;20179;-85
2020/12/27 15:36:20;;;;;;;0.50;0.50;;;;;;;0.27;67.65;98267.91;4983482;28;20175;-84
2020/12/27 15:39:08;;;;;;;0.40;0.40;;;;;;;0.21;67.33;98266.03;4968379;28;20179;-85
2020/12/27 15:46:17;;;;;;;0.40;0.40;;;;;;;0.21;68.77;98292.38;4966871;29;20179;-85
2020/12/27 15:49:53;;;;;;;0.40;0.40;;;;;;;-0.01;68.29;98265.19;4972797;28;20207;-85
2020/12/27 15:52:44;;;;;;;0.40;0.40;;;;;;;0.06;69.67;98261.78;4957974;28;20179;-85
2020/12/27 15:55:23;;;;;;;0.40;0.40;;;;;;;0.07;68.99;98266.88;4912199;28;20195;-85
2020/12/27 15:58:16;;;;;;;0.40;0.40;;;;;;;0.09;69.43;98288.59;4957032;28;20313;-84
2020/12/27 16:01:27;;;;;;;0.40;0.40;;;;;;;0.10;69.21;98281.47;4971350;28;20163;-85
2020/12/27 16:04:30;;;;;;;0.40;0.40;;;;;;;0.03;69.25;98272.72;4980676;28;20178;-84
2020/12/27 16:07:34;;;;;;;0.40;0.40;;;;;;;-0.09;69.32;98264.47;4966015;29;20195;-84
2020/12/27 16:10:44;;;;;;;0.40;0.40;;;;;;;0.05;69.07;98273.34;4966528;29;20211;-84
2020/12/27 16:13:50;;;;;;;0.40;0.40;;;;;;;-0.15;69.20;98254.69;4965051;29;20179;-85
2020/12/27 16:17:42;;;;;;;0.40;0.40;;;;;;;0.02;69.11;98264.00;4982756;28;20168;-84
2020/12/27 16:21:07;;;;;;;0.40;0.40;;;;;;;-0.01;69.43;98233.59;4982557;28;20178;-84
2020/12/27 16:23:55;;;;;;;0.40;0.40;;;;;;;0.13;68.14;98231.09;4966867;29;20183;-84
2020/12/27 16:26:53;;;;;;;0.40;0.40;;;;;;;0.07;67.86;98224.75;4982498;28;20209;-84
2020/12/27 16:30:24;;;;;;;0.40;0.40;;;;;;;0.09;68.00;98214.03;5001908;28;20171;-84
2020/12/27 16:33:41;;;;;;;0.40;0.40;;;;;;;0.18;67.25;98224.25;4988086;28;20154;-84
2020/12/27 16:36:23;;;;;;;0.40;0.40;;;;;;;0.04;67.75;98217.22;4969774;28;20183;-84
2020/12/27 16:39:09;;;;;;;0.40;0.40;;;;;;;0.18;67.86;98224.25;4983921;28;20201;-84
2020/12/27 16:46:39;;;;;;;0.40;0.40;;;;;;;-0.12;68.23;98202.47;5001717;28;20170;-84
2020/12/27 16:49:34;;;;;;;0.40;0.40;;;;;;;-0.10;68.89;98184.69;4986944;28;20275;-84
2020/12/27 16:52:19;;;;;;;0.40;0.40;;;;;;;-0.17;69.04;98175.06;4969573;28;20266;-84
2020/12/27 16:55:13;;;;;;;0.40;0.40;;;;;;;0.00;68.57;98184.38;4970099;29;20175;-84
2020/12/27 16:58:01;;;;;;;0.40;0.40;;;;;;;-0.15;69.19;98159.91;4965554;29;20202;-84
2020/12/27 17:02:05;;;;;;;0.40;0.40;;;;;;;-0.11;69.85;98163.81;4981683;28;20195;-84
2020/12/27 17:04:52;;;;;;;0.47;0.47;;;;;;;-0.15;70.07;98163.38;4950112;28;20274;-84
2020/12/27 17:07:44;;;;;;;0.40;0.40;;;;;;;-0.19;70.52;98151.59;4952220;28;20233;-84
2020/12/27 17:10:28;;;;;;;0.50;0.50;;;;;;;-0.09;70.18;98157.34;4951814;29;20163;-84
2020/12/27 17:13:19;;;;;;;0.40;0.40;;;;;;;-0.30;70.93;98128.38;4981432;28;20203;-84
2020/12/27 17:16:36;;;;;;;0.40;0.40;;;;;;;-0.15;70.67;98137.03;4959544;29;20206;-84
2020/12/27 17:19:35;;;;;;;0.40;0.40;;;;;;;-0.12;71.17;98128.75;4941365;28;20191;-85
2020/12/27 17:22:43;;;;;;;0.40;0.40;;;;;;;-0.18;71.27;98133.94;4981650;28;20240;-84
2020/12/27 17:25:39;;;;;;;0.40;0.40;;;;;;;-0.20;71.91;98125.44;4968237;29;20186;-84
2020/12/27 17:28:25;;;;;;;0.40;0.40;;;;;;;-0.09;71.40;98123.09;4966706;29;20202;-84
2020/12/27 17:31:25;;;;;;;0.40;0.40;;;;;;;-0.20;72.03;98126.25;4965104;29;20175;-84
2020/12/27 17:34:15;;;;;;;0.40;0.40;;;;;;;-0.27;71.88;98108.75;4965673;29;20183;-84
2020/12/27 17:37:25;;;;;;;0.40;0.40;;;;;;;-0.42;72.56;98079.06;4950292;29;20201;-84
2020/12/27 17:40:36;;;;;;;0.40;0.40;;;;;;;-0.25;71.75;98093.59;4980913;28;20175;-84
2020/12/27 17:43:33;;;;;;;0.50;0.50;;;;;;;-0.37;72.29;98076.69;4971020;28;20503;-85
2020/12/27 17:50:41;;;;;;;0.40;0.40;;;;;;;-0.23;72.40;98067.88;4980263;28;20191;-85
2020/12/27 17:53:36;;;;;;;0.40;0.40;;;;;;;-0.17;72.71;98067.16;4965601;29;20255;-84
2020/12/27 17:56:34;;;;;;;0.40;0.40;;;;;;;-0.12;72.86;98072.66;4932476;29;20194;-84
2020/12/27 17:59:25;;;;;;;0.50;0.50;;;;;;;-0.33;73.69;98062.97;4960876;29;20213;-84
2020/12/27 18:02:13;;;;;;;0.30;0.30;;;;;;;-0.29;73.75;98058.97;4963647;29;20219;-84
2020/12/27 18:05:06;;;;;;;0.40;0.40;;;;;;;-0.30;74.15;98067.03;4966199;28;20168;-84
2020/12/27 18:08:09;;;;;;;0.40;0.40;;;;;;;-0.40;74.77;98069.16;4980372;28;20211;-83
2020/12/27 18:12:01;;;;;;;0.40;0.40;;;;;;;-0.52;75.86;98055.69;4962782;28;20190;-84
2020/12/27 18:15:36;;;;;;;0.40;0.40;;;;;;;-0.49;75.73;98050.06;4974227;29;20203;-83
2020/12/27 18:26:46;;;;;;;0.40;0.40;;;;;;;-0.50;76.61;98051.03;4980193;28;20170;-84
2020/12/27 18:30:24;;;;;;;0.40;0.40;;;;;;;-0.39;76.46;98049.75;4941918;28;20238;-84
2020/12/27 18:33:56;;;;;;;0.40;0.40;;;;;;;-0.51;77.57;98034.44;4980245;28;20183;-84
2020/12/27 18:41:22;;;;;;;0.40;0.40;;;;;;;-0.52;78.05;98027.56;4963136;29;20187;-84
2020/12/27 18:45:27;;;;;;;0.40;0.40;;;;;;;-0.47;78.24;98022.53;4966721;29;20225;-83
2020/12/27 18:48:37;;;;;;;0.40;0.40;;;;;;;-0.54;78.99;98021.69;4971270;28;20211;-83
2020/12/27 19:00:50;;;;;;;0.40;0.40;;;;;;;-0.46;79.57;98013.66;4941013;29;20175;-83
2020/12/27 19:04:09;;;;;;;0.40;0.40;;;;;;;-0.44;79.83;98016.09;4914924;29;20185;-84
2020/12/27 19:07:52;;;;;;;0.40;0.40;;;;;;;-0.46;79.35;97994.41;4923334;29;20206;-83
2020/12/27 19:11:32;;;;;;;0.40;0.40;;;;;;;-0.35;78.82;97993.09;4922580;29;20266;-83
2020/12/27 19:15:03;;;;;;;0.40;0.40;;;;;;;-0.26;79.24;97992.78;4906791;29;20196;-85
2020/12/27 19:22:51;;;;;;;0.50;0.50;;;;;;;-0.46;79.87;97971.56;4940031;29;20188;-84
2020/12/27 19:25:59;;;;;;;0.40;0.40;;;;;;;-0.39;79.70;97971.63;4918606;29;20199;-84
2020/12/27 19:28:55;;;;;;;0.40;0.40;;;;;;;-0.49;80.83;97977.19;4939469;29;20271;-85
2020/12/27 19:35:46;;;;;;;0.40;0.40;;;;;;;-0.44;80.26;97945.06;4957699;29;20188;-84
2020/12/27 19:38:34;;;;;;;0.40;0.40;;;;;;;-0.39;80.46;97953.19;4957615;28;20195;-83
2020/12/27 19:41:49;;;;;;;0.40;0.40;;;;;;;-0.39;80.33;97945.31;4966944;29;20211;-84
2020/12/27 19:44:43;;;;;;;0.40;0.40;;;;;;;-0.42;80.36;97953.56;4947539;29;20218;-83
2020/12/27 19:47:40;;;;;;;0.40;0.40;;;;;;;-0.42;80.98;97950.94;4980382;28;20186;-83
2020/12/27 19:50:29;;;;;;;0.50;0.50;;;;;;;-0.39;81.00;97942.69;4954197;28;20183;-83
2020/12/27 19:53:32;;;;;;;0.40;0.40;;;;;;;-0.32;80.79;97948.78;4966421;28;20188;-84
2020/12/27 19:56:44;;;;;;;0.40;0.40;;;;;;;-0.48;81.19;97930.66;4965966;28;20187;-84
2020/12/27 19:59:32;;;;;;;0.50;0.50;;;;;;;-0.37;81.05;97940.66;4978286;29;20184;-84
2020/12/27 20:02:13;;;;;;;0.40;0.40;;;;;;;-0.47;81.24;97927.81;4947394;29;20175;-82
2020/12/27 20:05:07;;;;;;;0.40;0.40;;;;;;;-0.45;81.31;97932.91;4948542;29;20176;-84
2020/12/27 20:07:58;;;;;;;0.40;0.40;;;;;;;-0.37;81.45;97926.72;4963287;29;20279;-84
2020/12/27 20:10:49;;;;;;;0.40;0.40;;;;;;;-0.36;81.71;97917.78;4958266;29;20200;-83
2020/12/27 20:13:51;;;;;;;0.40;0.40;;;;;;;-0.32;81.72;97922.47;4952884;28;20197;-84
2020/12/27 20:16:39;;;;;;;0.40;0.40;;;;;;;-0.39;81.72;97907.66;4997323;28;20186;-84
2020/12/27 20:19:36;;;;;;;0.40;0.40;;;;;;;-0.38;81.59;97893.50;4978124;28;20187;-84
2020/12/27 20:22:31;;;;;;;0.40;0.40;;;;;;;-0.32;81.48;97911.13;4966597;29;20200;-84
2020/12/27 20:25:37;;;;;;;0.40;0.40;;;;;;;-0.40;81.28;97891.03;4950788;29;20180;-83
2020/12/27 20:28:34;;;;;;;0.40;0.40;;;;;;;-0.37;81.78;97895.91;4967711;29;20207;-84
2020/12/27 20:31:19;;;;;;;0.40;0.40;;;;;;;-0.42;81.32;97873.84;4960431;28;20218;-84
2020/12/27 20:34:09;;;;;;;0.40;0.40;;;;;;;-0.33;81.68;97883.22;4969148;28;20202;-83
2020/12/27 20:36:56;;;;;;;0.40;0.40;;;;;;;-0.27;81.28;97880.59;4969619;28;20269;-83
2020/12/27 20:40:07;;;;;;;0.40;0.40;;;;;;;-0.32;81.05;97869.03;4950956;28;20227;-83
2020/12/27 20:42:51;;;;;;;0.40;0.40;;;;;;;-0.27;81.00;97872.72;4928865;29;20215;-83
2020/12/27 20:45:30;;;;;;;0.37;0.37;;;;;;;-0.22;81.17;97875.56;4981120;28;20257;-83
2020/12/27 20:48:34;;;;;;;0.40;0.40;;;;;;;-0.23;81.69;97865.22;4999857;28;20198;-84
2020/12/27 20:51:15;;;;;;;0.40;0.40;;;;;;;-0.22;81.73;97858.97;4968620;28;20270;-84
2020/12/27 20:53:59;;;;;;;0.40;0.40;;;;;;;-0.19;81.29;97859.41;4971936;28;20213;-84
2020/12/27 20:56:43;;;;;;;0.50;0.50;;;;;;;-0.20;81.11;97846.44;4980422;28;20429;-84
2020/12/27 20:59:31;;;;;;;0.40;0.40;;;;;;;-0.29;81.53;97830.00;4965483;29;20183;-84
2020/12/27 21:02:22;;;;;;;0.40;0.40;;;;;;;-0.32;81.78;97824.28;4966338;29;20207;-83
2020/12/27 21:05:09;;;;;;;0.40;0.40;;;;;;;-0.27;81.48;97824.53;4966441;28;20195;-83
2020/12/27 21:07:59;;;;;;;0.40;0.40;;;;;;;-0.25;81.65;97815.44;4942652;29;20208;-84
2020/12/27 21:10:46;;;;;;;0.40;0.40;;;;;;;-0.22;81.93;97822.13;4988898;28;20270;-83
2020/12/27 21:13:33;;;;;;;0.40;0.40;;;;;;;-0.40;81.92;97791.06;4978592;28;20210;-83
2020/12/27 21:16:18;;;;;;;0.40;0.40;;;;;;;-0.27;82.42;97799.03;4957430;28;20226;-84
2020/12/27 21:19:04;;;;;;;0.40;0.40;;;;;;;-0.26;81.78;97784.03;4989190;28;20211;-83
2020/12/27 21:22:02;;;;;;;0.40;0.40;;;;;;;-0.31;82.44;97782.00;4955439;28;20179;-82
2020/12/27 21:25:01;;;;;;;0.40;0.40;;;;;;;-0.24;82.41;97780.22;4985490;28;20188;-83
2020/12/27 21:27:56;;;;;;;0.40;0.40;;;;;;;-0.34;82.38;97763.97;4937101;28;20253;-84
2020/12/27 21:30:43;;;;;;;0.50;0.50;;;;;;;-0.29;82.00;97758.13;4939389;28;20202;-82
2020/12/27 21:33:23;;;;;;;0.40;0.40;;;;;;;-0.21;82.29;97764.03;4983648;28;20197;-84
2020/12/27 21:36:13;;;;;;;0.50;0.50;;;;;;;-0.31;81.98;97744.34;4980792;28;20206;-84
2020/12/27 21:38:55;;;;;;;0.40;0.40;;;;;;;-0.17;81.99;97760.00;4968768;28;20258;-84
2020/12/27 21:41:40;;;;;;;0.40;0.40;;;;;;;-0.17;82.13;97735.50;4981633;28;20221;-83
2020/12/27 21:44:20;;;;;;;0.40;0.40;;;;;;;-0.15;81.63;97722.97;4965119;29;20255;-83
2020/12/27 21:47:05;;;;;;;0.30;0.30;;;;;;;-0.02;81.34;97717.72;4964927;28;20163;-83
2020/12/27 21:50:05;;;;;;;0.40;0.40;;;;;;;0.03;80.77;97710.03;4955456;28;20207;-83
2020/12/27 21:53:03;;;;;;;0.40;0.40;;;;;;;0.01;81.36;97712.03;4969640;28;20201;-83
2020/12/27 21:55:59;;;;;;;0.40;0.40;;;;;;;-0.05;80.92;97699.69;4984599;28;20258;-83
2020/12/27 21:58:53;;;;;;;0.30;0.30;;;;;;;0.00;81.23;97707.81;4968621;28;20187;-83
2020/12/27 22:01:43;;;;;;;0.40;0.40;;;;;;;-0.05;81.41;97692.59;4974586;28;20186;-83
2020/12/27 22:04:34;;;;;;;0.40;0.40;;;;;;;0.03;81.43;97682.91;4948728;29;20223;-83
2020/12/27 22:07:27;;;;;;;0.40;0.40;;;;;;;-0.06;81.35;97672.56;4946613;29;20255;-83
2020/12/27 22:10:16;;;;;;;0.40;0.40;;;;;;;-0.12;81.15;97662.00;4966451;28;20201;-83
2020/12/27 22:13:21;;;;;;;0.50;0.50;;;;;;;-0.13;81.33;97652.47;4971683;28;20190;-83
2020/12/27 22:16:13;;;;;;;0.40;0.40;;;;;;;-0.05;80.55;97655.72;4967732;28;20273;-83
2020/12/27 22:19:09;;;;;;;0.50;0.50;;;;;;;-0.09;80.06;97640.53;4983419;28;20189;-83
2020/12/27 22:21:57;;;;;;;0.40;0.40;;;;;;;-0.13;80.55;97650.66;4999606;28;20187;-83
2020/12/27 22:24:38;;;;;;;0.40;0.40;;;;;;;-0.23;81.19;97631.81;4952339;28;20198;-83
2020/12/27 22:27:30;;;;;;;0.40;0.40;;;;;;;-0.05;80.88;97633.88;4984001;28;20189;-83
2020/12/27 22:30:18;;;;;;;0.40;0.40;;;;;;;-0.12;80.91;97630.41;4984924;28;20163;-84
2020/12/27 22:33:18;;;;;;;0.40;0.40;;;;;;;-0.16;81.15;97616.84;4983785;28;20166;-83
2020/12/27 22:36:03;;;;;;;0.40;0.40;;;;;;;-0.25;81.36;97607.53;4968111;28;20251;-84
2020/12/27 22:38:57;;;;;;;0.50;0.50;;;;;;;-0.27;80.84;97585.03;4954984;28;20182;-84
2020/12/27 22:41:41;;;;;;;0.30;0.30;;;;;;;-0.30;81.22;97573.09;4978348;28;20257;-84
2020/12/27 22:44:36;;;;;;;0.40;0.40;;;;;;;-0.16;81.16;97584.47;4969379;28;20226;-84
2020/12/27 22:47:31;;;;;;;0.40;0.40;;;;;;;-0.23;81.13;97565.19;4985537;28;20183;-84
2020/12/27 22:50:23;;;;;;;0.30;0.30;;;;;;;-0.31;80.84;97565.41;4984025;28;20203;-84
2020/12/27 22:53:15;;;;;;;0.30;0.30;;;;;;;-0.26;81.33;97557.72;4997637;28;20225;-84
2020/12/27 22:55:59;;;;;;;0.40;0.40;;;;;;;-0.17;80.80;97577.56;4982507;28;20180;-84
2020/12/27 22:58:50;;;;;;;0.40;0.40;;;;;;;-0.31;80.69;97539.91;4983742;28;20201;-84
2020/12/27 23:01:35;;;;;;;0.40;0.40;;;;;;;-0.23;81.00;97541.53;4977172;28;20186;-83
2020/12/27 23:04:26;;;;;;;0.40;0.40;;;;;;;-0.12;80.67;97535.66;4964105;29;20206;-83
2020/12/27 23:07:29;;;;;;;0.40;0.40;;;;;;;-0.17;80.59;97524.94;4953322;28;20198;-82
2020/12/27 23:10:23;;;;;;;0.40;0.40;;;;;;;-0.16;80.55;97510.75;4951716;28;20269;-84
2020/12/27 23:13:11;;;;;;;0.40;0.40;;;;;;;-0.08;80.51;97506.09;4963246;28;20203;-84
2020/12/27 23:16:33;;;;;;;0.40;0.40;;;;;;;-0.12;80.91;97485.66;4995810;28;20187;-84
2020/12/27 23:19:27;;;;;;;0.40;0.40;;;;;;;-0.16;80.68;97482.63;4978141;28;20226;-84
2020/12/27 23:22:18;;;;;;;0.40;0.40;;;;;;;-0.17;80.68;97464.41;4950991;28;20211;-84
2020/12/27 23:25:05;;;;;;;0.50;0.50;;;;;;;-0.07;80.41;97454.25;4997840;28;20198;-84
2020/12/27 23:28:19;;;;;;;0.47;0.47;;;;;;;-0.09;80.65;97437.84;4970042;28;20214;-83
2020/12/27 23:31:05;;;;;;;0.40;0.40;;;;;;;-0.02;80.42;97439.47;4966114;28;20203;-83
2020/12/27 23:34:03;;;;;;;0.33;0.33;;;;;;;0.00;79.95;97431.38;4996121;28;20190;-84
2020/12/27 23:36:48;;;;;;;0.40;0.40;;;;;;;0.02;80.05;97418.00;4967058;28;20194;-83
2020/12/27 23:39:22;;;;;;;0.40;0.40;;;;;;;-0.04;80.26;97411.72;4966066;28;20209;-84
2020/12/27 23:42:21;;;;;;;0.40;0.40;;;;;;;0.02;79.58;97415.38;4971754;28;20254;-84
2020/12/27 23:45:09;;;;;;;0.50;0.50;;;;;;;0.19;79.60;97419.16;4980684;28;20246;-84
2020/12/27 23:47:55;;;;;;;0.40;0.40;;;;;;;0.18;79.09;97423.63;4969650;28;20175;-84
2020/12/27 23:50:58;;;;;;;0.40;0.40;;;;;;;0.05;79.75;97410.47;4978165;28;20223;-84
2020/12/27 23:54:27;;;;;;;0.40;0.40;;;;;;;-0.03;79.24;97400.19;4971915;28;20187;-84
2020/12/27 23:57:32;;;;;;;0.40;0.40;;;;;;;0.06;78.67;97367.34;4967570;28;20172;-84
